createdAt,value
2017-10-08T00:00:39.904Z,0
2017-10-08T00:01:39.895Z,0
2017-10-08T00:02:40.208Z,0
2017-10-08T00:03:40.248Z,0
2017-10-08T00:04:40.199Z,0
2017-10-08T00:05:40.167Z,0
2017-10-08T00:06:40.188Z,0
2017-10-08T00:07:40.481Z,0
2017-10-08T00:08:40.514Z,0
2017-10-08T00:09:40.149Z,0
2017-10-08T00:10:40.111Z,0
2017-10-08T00:11:39.773Z,0
2017-10-08T00:12:40.408Z,0
2017-10-08T00:13:40.068Z,0
2017-10-08T00:14:40.077Z,0
2017-10-08T00:15:40.050Z,0
2017-10-08T00:16:40.068Z,0
2017-10-08T00:17:40.381Z,0
2017-10-08T00:18:40.010Z,0
2017-10-08T00:19:40.022Z,0
2017-10-08T00:20:39.692Z,0
2017-10-08T00:21:39.991Z,0
2017-10-08T00:22:39.959Z,0
2017-10-08T00:23:39.976Z,0
2017-10-08T00:24:39.937Z,0
2017-10-08T00:25:39.594Z,0
2017-10-08T00:26:39.914Z,0
2017-10-08T00:27:39.902Z,0
2017-10-08T00:28:39.890Z,0
2017-10-08T00:29:39.545Z,0
2017-10-08T00:30:39.863Z,0
2017-10-08T00:31:39.533Z,0
2017-10-08T00:32:39.857Z,0
2017-10-08T00:33:39.496Z,0
2017-10-08T00:34:39.832Z,0
2017-10-08T00:35:40.125Z,0
2017-10-08T00:36:39.459Z,0
2017-10-08T00:37:40.120Z,0
2017-10-08T00:38:39.484Z,0
2017-10-08T00:39:39.770Z,0
2017-10-08T00:40:39.408Z,0
2017-10-08T00:41:40.071Z,0
2017-10-08T00:42:40.044Z,0
2017-10-08T00:43:39.710Z,0
2017-10-08T00:44:39.705Z,0
2017-10-08T00:45:39.673Z,0
2017-10-08T00:46:39.995Z,0
2017-10-08T00:47:39.349Z,0
2017-10-08T00:48:39.309Z,0
2017-10-08T00:49:40.004Z,0
2017-10-08T00:50:40.289Z,0
2017-10-08T00:51:39.290Z,0
2017-10-08T00:52:39.257Z,0
2017-10-08T00:53:39.268Z,0
2017-10-08T00:54:39.564Z,0
2017-10-08T00:55:39.548Z,0
2017-10-08T00:56:39.543Z,0
2017-10-08T00:57:39.873Z,0
2017-10-08T00:58:39.524Z,0
2017-10-08T00:59:39.564Z,0
2017-10-08T01:00:39.502Z,0
2017-10-08T01:01:39.147Z,0
2017-10-08T01:02:39.793Z,0
2017-10-08T01:03:39.787Z,0
2017-10-08T01:04:39.486Z,0
2017-10-08T01:05:39.770Z,0
2017-10-08T01:06:39.110Z,0
2017-10-08T01:07:39.448Z,0
2017-10-08T01:08:39.760Z,0
2017-10-08T01:09:39.049Z,0
2017-10-08T01:10:39.381Z,0
2017-10-08T01:11:40.036Z,0
2017-10-08T01:12:39.349Z,0
2017-10-08T01:13:39.657Z,0
2017-10-08T01:14:39.345Z,0
2017-10-08T01:15:39.666Z,0
2017-10-08T01:16:39.316Z,0
2017-10-08T01:17:38.962Z,0
2017-10-08T01:18:39.926Z,0
2017-10-08T01:19:39.271Z,0
2017-10-08T01:20:39.247Z,0
2017-10-08T01:21:39.572Z,0
2017-10-08T01:22:39.551Z,0
2017-10-08T01:23:39.562Z,0
2017-10-08T01:24:39.193Z,0
2017-10-08T01:25:38.865Z,0
2017-10-08T01:26:39.181Z,0
2017-10-08T01:27:39.183Z,0
2017-10-08T01:28:39.474Z,0
2017-10-08T01:29:39.478Z,0
2017-10-08T01:30:39.454Z,0
2017-10-08T01:31:38.781Z,0
2017-10-08T01:32:38.769Z,0
2017-10-08T01:33:39.101Z,0
2017-10-08T01:34:39.073Z,0
2017-10-08T01:35:39.070Z,0
2017-10-08T01:36:38.719Z,0
2017-10-08T01:37:39.395Z,0
2017-10-08T01:38:39.056Z,0
2017-10-08T01:39:39.037Z,0
2017-10-08T01:40:39.000Z,0
2017-10-08T01:41:38.993Z,0
2017-10-08T01:42:38.645Z,0
2017-10-08T01:43:38.967Z,0
2017-10-08T01:44:38.632Z,0
2017-10-08T01:45:38.632Z,0
2017-10-08T01:46:39.273Z,0
2017-10-08T01:47:38.951Z,0
2017-10-08T01:48:38.602Z,0
2017-10-08T01:49:38.886Z,0
2017-10-08T01:50:39.207Z,0
2017-10-08T01:51:38.862Z,0
2017-10-08T01:52:39.200Z,0
2017-10-08T01:53:38.510Z,0
2017-10-08T01:54:38.834Z,0
2017-10-08T01:55:38.853Z,0
2017-10-08T01:56:38.799Z,0
2017-10-08T01:57:38.790Z,0
2017-10-08T01:58:39.124Z,0
2017-10-08T01:59:38.778Z,0
2017-10-08T02:00:38.470Z,0
2017-10-08T02:01:39.116Z,0
2017-10-08T02:02:38.743Z,0
2017-10-08T02:03:38.387Z,0
2017-10-08T02:04:39.031Z,0
2017-10-08T02:05:38.704Z,0
2017-10-08T02:06:38.352Z,0
2017-10-08T02:07:39.016Z,0
2017-10-08T02:08:38.653Z,0
2017-10-08T02:09:38.670Z,0
2017-10-08T02:10:38.649Z,0
2017-10-08T02:11:38.659Z,0
2017-10-08T02:12:38.941Z,0
2017-10-08T02:13:38.280Z,0
2017-10-08T02:14:38.603Z,0
2017-10-08T02:15:38.572Z,0
2017-10-08T02:16:38.562Z,0
2017-10-08T02:17:38.892Z,0
2017-10-08T02:18:38.207Z,0
2017-10-08T02:19:38.522Z,0
2017-10-08T02:20:38.542Z,0
2017-10-08T02:21:38.498Z,0
2017-10-08T02:22:38.496Z,0
2017-10-08T02:23:38.473Z,0
2017-10-08T02:24:38.136Z,0
2017-10-08T02:25:38.129Z,0
2017-10-08T02:26:38.436Z,0
2017-10-08T02:27:38.112Z,0
2017-10-08T02:28:38.782Z,0
2017-10-08T02:29:38.074Z,0
2017-10-08T02:30:38.061Z,0
2017-10-08T02:31:38.053Z,0
2017-10-08T02:32:38.045Z,0
2017-10-08T02:33:38.720Z,0
2017-10-08T02:34:38.750Z,0
2017-10-08T02:35:38.329Z,0
2017-10-08T02:36:38.320Z,0
2017-10-08T02:37:37.985Z,0
2017-10-08T02:38:37.970Z,0
2017-10-08T02:39:38.293Z,0
2017-10-08T02:40:38.269Z,0
2017-10-08T02:41:38.299Z,0
2017-10-08T02:42:38.273Z,0
2017-10-08T02:43:38.238Z,0
2017-10-08T02:44:37.910Z,0
2017-10-08T02:45:38.553Z,0
2017-10-08T02:46:38.232Z,0
2017-10-08T02:47:37.858Z,0
2017-10-08T02:48:37.851Z,0
2017-10-08T02:49:38.544Z,0
2017-10-08T02:50:38.169Z,0
2017-10-08T02:51:37.836Z,0
2017-10-08T02:52:38.457Z,0
2017-10-08T02:53:38.772Z,0
2017-10-08T02:54:37.776Z,0
2017-10-08T02:55:38.093Z,0
2017-10-08T02:56:37.770Z,0
2017-10-08T02:57:38.072Z,0
2017-10-08T02:58:38.059Z,0
2017-10-08T02:59:38.401Z,0
2017-10-08T03:00:38.029Z,0
2017-10-08T03:01:38.035Z,0
2017-10-08T03:02:37.704Z,0
2017-10-08T03:03:38.001Z,0
2017-10-08T03:04:37.658Z,0
2017-10-08T03:05:37.646Z,0
2017-10-08T03:06:38.303Z,0
2017-10-08T03:07:37.623Z,0
2017-10-08T03:08:37.953Z,0
2017-10-08T03:09:37.942Z,0
2017-10-08T03:10:37.916Z,0
2017-10-08T03:11:37.913Z,0
2017-10-08T03:12:37.960Z,0
2017-10-08T03:13:37.881Z,0
2017-10-08T03:14:37.867Z,0
2017-10-08T03:15:37.530Z,0
2017-10-08T03:16:37.853Z,0
2017-10-08T03:17:38.186Z,0
2017-10-08T03:18:37.820Z,0
2017-10-08T03:19:37.491Z,0
2017-10-08T03:20:37.801Z,0
2017-10-08T03:21:38.111Z,0
2017-10-08T03:22:38.105Z,0
2017-10-08T03:23:37.478Z,0
2017-10-08T03:24:37.425Z,0
2017-10-08T03:25:37.755Z,0
2017-10-08T03:26:38.076Z,0
2017-10-08T03:27:37.744Z,0
2017-10-08T03:28:37.384Z,0
2017-10-08T03:29:37.693Z,0
2017-10-08T03:30:37.355Z,0
2017-10-08T03:31:37.671Z,0
2017-10-08T03:32:37.332Z,0
2017-10-08T03:33:37.994Z,0
2017-10-08T03:34:37.313Z,0
2017-10-08T03:35:37.297Z,0
2017-10-08T03:36:37.953Z,0
2017-10-08T03:37:37.923Z,0
2017-10-08T03:38:37.585Z,0
2017-10-08T03:39:38.226Z,0
2017-10-08T03:40:37.919Z,0
2017-10-08T03:41:37.245Z,0
2017-10-08T03:42:37.898Z,0
2017-10-08T03:43:37.238Z,0
2017-10-08T03:44:37.515Z,0
2017-10-08T03:45:37.187Z,0
2017-10-08T03:46:37.512Z,0
2017-10-08T03:47:37.156Z,0
2017-10-08T03:48:37.488Z,0
2017-10-08T03:49:37.171Z,0
2017-10-08T03:50:37.119Z,0
2017-10-08T03:51:37.438Z,0
2017-10-08T03:52:37.782Z,0
2017-10-08T03:53:37.412Z,0
2017-10-08T03:54:37.435Z,0
2017-10-08T03:55:37.406Z,0
2017-10-08T03:56:37.371Z,0
2017-10-08T03:57:37.370Z,0
2017-10-08T03:58:37.362Z,0
2017-10-08T03:59:37.345Z,0
2017-10-08T04:00:38.021Z,0
2017-10-08T04:01:36.987Z,0
2017-10-08T04:02:37.306Z,0
2017-10-08T04:03:36.969Z,0
2017-10-08T04:04:37.634Z,0
2017-10-08T04:05:37.269Z,0
2017-10-08T04:06:36.971Z,0
2017-10-08T04:07:37.589Z,0
2017-10-08T04:08:36.931Z,0
2017-10-08T04:09:37.241Z,0
2017-10-08T04:10:37.548Z,0
2017-10-08T04:11:36.895Z,0
2017-10-08T04:12:36.902Z,0
2017-10-08T04:13:36.858Z,0
2017-10-08T04:14:37.181Z,0
2017-10-08T04:15:36.854Z,0
2017-10-08T04:16:37.486Z,0
2017-10-08T04:17:37.134Z,0
2017-10-08T04:18:37.124Z,0
2017-10-08T04:19:36.789Z,0
2017-10-08T04:20:37.106Z,0
2017-10-08T04:21:36.772Z,0
2017-10-08T04:22:37.118Z,0
2017-10-08T04:23:36.751Z,0
2017-10-08T04:24:37.386Z,0
2017-10-08T04:25:37.058Z,0
2017-10-08T04:26:37.086Z,0
2017-10-08T04:27:36.694Z,0
2017-10-08T04:28:36.692Z,0
2017-10-08T04:29:37.679Z,0
2017-10-08T04:30:36.670Z,0
2017-10-08T04:31:36.983Z,0
2017-10-08T04:32:36.970Z,0
2017-10-08T04:33:36.637Z,0
2017-10-08T04:34:37.295Z,0
2017-10-08T04:35:36.609Z,0
2017-10-08T04:36:36.594Z,0
2017-10-08T04:37:36.583Z,0
2017-10-08T04:38:36.574Z,0
2017-10-08T04:39:36.894Z,0
2017-10-08T04:40:37.208Z,0
2017-10-08T04:41:36.868Z,0
2017-10-08T04:42:36.527Z,0
2017-10-08T04:43:37.173Z,0
2017-10-08T04:44:37.177Z,0
2017-10-08T04:45:36.821Z,0
2017-10-08T04:46:36.812Z,0
2017-10-08T04:47:37.137Z,0
2017-10-08T04:48:36.802Z,0
2017-10-08T04:49:36.460Z,0
2017-10-08T04:50:36.765Z,0
2017-10-08T04:51:37.104Z,0
2017-10-08T04:52:37.407Z,0
2017-10-08T04:53:36.744Z,0
2017-10-08T04:54:36.392Z,0
2017-10-08T04:55:36.725Z,0
2017-10-08T04:56:36.697Z,0
2017-10-08T04:57:36.712Z,0
2017-10-08T04:58:36.674Z,0
2017-10-08T04:59:36.361Z,0
2017-10-08T05:00:36.659Z,0
2017-10-08T05:01:36.379Z,4
2017-10-08T05:02:36.961Z,0
2017-10-08T05:03:36.307Z,4
2017-10-08T05:04:36.289Z,4
2017-10-08T05:05:36.272Z,8
2017-10-08T05:06:36.260Z,8
2017-10-08T05:07:36.581Z,8
2017-10-08T05:08:36.246Z,8
2017-10-08T05:09:36.585Z,12
2017-10-08T05:10:36.218Z,12
2017-10-08T05:11:36.209Z,12
2017-10-08T05:12:36.899Z,12
2017-10-08T05:13:36.186Z,16
2017-10-08T05:14:36.174Z,16
2017-10-08T05:15:36.181Z,20
2017-10-08T05:16:36.477Z,28
2017-10-08T05:17:36.152Z,32
2017-10-08T05:18:36.129Z,44
2017-10-08T05:19:36.786Z,60
2017-10-08T05:20:36.787Z,68
2017-10-08T05:21:36.501Z,80
2017-10-08T05:22:36.800Z,68
2017-10-08T05:23:36.429Z,52
2017-10-08T05:24:36.078Z,64
2017-10-08T05:25:36.404Z,88
2017-10-08T05:26:36.374Z,84
2017-10-08T05:27:36.362Z,88
2017-10-08T05:28:36.027Z,88
2017-10-08T05:29:36.994Z,80
2017-10-08T05:30:36.675Z,96
2017-10-08T05:31:36.350Z,92
2017-10-08T05:32:36.350Z,104
2017-10-08T05:33:35.968Z,116
2017-10-08T05:34:36.611Z,100
2017-10-08T05:35:36.301Z,100
2017-10-08T05:36:35.976Z,108
2017-10-08T05:37:35.946Z,116
2017-10-08T05:38:35.919Z,100
2017-10-08T05:39:36.249Z,104
2017-10-08T05:40:35.899Z,136
2017-10-08T05:41:35.912Z,168
2017-10-08T05:42:36.238Z,188
2017-10-08T05:43:35.984Z,204
2017-10-08T05:44:36.250Z,188
2017-10-08T05:45:36.513Z,212
2017-10-08T05:46:36.157Z,252
2017-10-08T05:47:35.841Z,280
2017-10-08T05:48:35.827Z,280
2017-10-08T05:49:36.133Z,248
2017-10-08T05:50:35.806Z,236
2017-10-08T05:51:36.118Z,192
2017-10-08T05:52:36.424Z,148
2017-10-08T05:53:36.433Z,144
2017-10-08T05:54:36.084Z,172
2017-10-08T05:55:35.736Z,228
2017-10-08T05:56:36.400Z,260
2017-10-08T05:57:36.044Z,232
2017-10-08T05:58:36.070Z,272
2017-10-08T05:59:35.697Z,256
2017-10-08T06:00:36.358Z,268
2017-10-08T06:01:36.003Z,256
2017-10-08T06:02:36.339Z,260
2017-10-08T06:03:35.979Z,296
2017-10-08T06:04:35.691Z,344
2017-10-08T06:05:36.296Z,428
2017-10-08T06:06:35.947Z,512
2017-10-08T06:07:36.283Z,612
2017-10-08T06:08:35.928Z,608
2017-10-08T06:09:35.914Z,580
2017-10-08T06:10:35.602Z,568
2017-10-08T06:11:35.564Z,612
2017-10-08T06:12:36.258Z,664
2017-10-08T06:13:36.585Z,800
2017-10-08T06:14:35.864Z,756
2017-10-08T06:15:36.202Z,640
2017-10-08T06:16:35.533Z,632
2017-10-08T06:17:35.838Z,664
2017-10-08T06:18:36.188Z,636
2017-10-08T06:19:36.155Z,580
2017-10-08T06:20:35.841Z,600
2017-10-08T06:21:35.461Z,704
2017-10-08T06:22:35.799Z,936
2017-10-08T06:23:35.438Z,1596
2017-10-08T06:24:36.085Z,1768
2017-10-08T06:25:35.777Z,1576
2017-10-08T06:26:35.758Z,1352
2017-10-08T06:27:36.077Z,1340
2017-10-08T06:28:35.717Z,1540
2017-10-08T06:29:36.031Z,1704
2017-10-08T06:30:35.742Z,1892
2017-10-08T06:31:35.674Z,1688
2017-10-08T06:32:35.659Z,1664
2017-10-08T06:33:36.023Z,1532
2017-10-08T06:34:35.689Z,1652
2017-10-08T06:35:35.642Z,1716
2017-10-08T06:36:35.955Z,1624
2017-10-08T06:37:35.609Z,1952
2017-10-08T06:38:35.628Z,1940
2017-10-08T06:39:35.591Z,2568
2017-10-08T06:40:35.574Z,2936
2017-10-08T06:41:35.251Z,3196
2017-10-08T06:42:35.882Z,3376
2017-10-08T06:43:35.921Z,3204
2017-10-08T06:44:35.891Z,2552
2017-10-08T06:45:35.566Z,2332
2017-10-08T06:46:35.837Z,1812
2017-10-08T06:47:36.154Z,1460
2017-10-08T06:48:35.488Z,1136
2017-10-08T06:49:35.487Z,1112
2017-10-08T06:50:35.134Z,1044
2017-10-08T06:51:36.134Z,1180
2017-10-08T06:52:35.766Z,1552
2017-10-08T06:53:35.802Z,1760
2017-10-08T06:54:35.442Z,1444
2017-10-08T06:55:35.423Z,1632
2017-10-08T06:56:35.773Z,1908
2017-10-08T06:57:35.412Z,1612
2017-10-08T06:58:35.756Z,1196
2017-10-08T06:59:35.047Z,1792
2017-10-08T07:00:35.692Z,2956
2017-10-08T07:01:35.345Z,3512
2017-10-08T07:02:35.005Z,3644
2017-10-08T07:03:34.997Z,2924
2017-10-08T07:04:34.998Z,2540
2017-10-08T07:05:34.974Z,2828
2017-10-08T07:06:35.300Z,3140
2017-10-08T07:07:35.955Z,3732
2017-10-08T07:08:35.270Z,3968
2017-10-08T07:09:35.602Z,4048
2017-10-08T07:10:34.938Z,3912
2017-10-08T07:11:34.907Z,3068
2017-10-08T07:12:35.242Z,2872
2017-10-08T07:13:34.922Z,2916
2017-10-08T07:14:34.876Z,2208
2017-10-08T07:15:35.537Z,2296
2017-10-08T07:16:35.191Z,2892
2017-10-08T07:17:35.167Z,3404
2017-10-08T07:18:35.164Z,4068
2017-10-08T07:19:35.166Z,4328
2017-10-08T07:20:35.136Z,4008
2017-10-08T07:21:34.801Z,3800
2017-10-08T07:22:35.801Z,4112
2017-10-08T07:23:34.838Z,4120
2017-10-08T07:24:34.810Z,4040
2017-10-08T07:25:35.125Z,4068
2017-10-08T07:26:34.767Z,4000
2017-10-08T07:27:34.739Z,3768
2017-10-08T07:28:35.055Z,3312
2017-10-08T07:29:34.721Z,2844
2017-10-08T07:30:34.727Z,2816
2017-10-08T07:31:35.033Z,2688
2017-10-08T07:32:34.687Z,2824
2017-10-08T07:33:34.679Z,3712
2017-10-08T07:34:34.995Z,4456
2017-10-08T07:35:34.985Z,5004
2017-10-08T07:36:34.973Z,5668
2017-10-08T07:37:34.985Z,5776
2017-10-08T07:38:35.009Z,4452
2017-10-08T07:39:34.623Z,2944
2017-10-08T07:40:34.606Z,2800
2017-10-08T07:41:34.595Z,2812
2017-10-08T07:42:34.913Z,2440
2017-10-08T07:43:34.907Z,2088
2017-10-08T07:44:34.607Z,1676
2017-10-08T07:45:34.563Z,1448
2017-10-08T07:46:34.872Z,1316
2017-10-08T07:47:34.873Z,1236
2017-10-08T07:48:34.558Z,1276
2017-10-08T07:49:35.168Z,1692
2017-10-08T07:50:34.848Z,1892
2017-10-08T07:51:35.157Z,1776
2017-10-08T07:52:35.140Z,1816
2017-10-08T07:53:34.476Z,1872
2017-10-08T07:54:35.188Z,2020
2017-10-08T07:55:35.112Z,1948
2017-10-08T07:56:34.811Z,2028
2017-10-08T07:57:35.112Z,2156
2017-10-08T07:58:34.459Z,2052
2017-10-08T07:59:34.740Z,2072
2017-10-08T08:00:35.057Z,2440
2017-10-08T08:01:34.392Z,2996
2017-10-08T08:02:35.063Z,3276
2017-10-08T08:03:34.372Z,3104
2017-10-08T08:04:34.693Z,2928
2017-10-08T08:05:35.006Z,2472
2017-10-08T08:06:34.703Z,2320
2017-10-08T08:07:34.688Z,1512
2017-10-08T08:08:34.984Z,1480
2017-10-08T08:09:34.658Z,2056
2017-10-08T08:10:34.339Z,2052
2017-10-08T08:11:34.303Z,1936
2017-10-08T08:12:35.284Z,2136
2017-10-08T08:13:34.621Z,2324
2017-10-08T08:14:34.593Z,2856
2017-10-08T08:15:34.594Z,3148
2017-10-08T08:16:34.598Z,4368
2017-10-08T08:17:34.237Z,4312
2017-10-08T08:18:34.559Z,4308
2017-10-08T08:19:34.884Z,3628
2017-10-08T08:20:34.557Z,3292
2017-10-08T08:21:34.528Z,2748
2017-10-08T08:22:34.198Z,2540
2017-10-08T08:23:34.520Z,2804
2017-10-08T08:24:34.496Z,2460
2017-10-08T08:25:34.501Z,2688
2017-10-08T08:26:34.479Z,2848
2017-10-08T08:27:34.501Z,3008
2017-10-08T08:28:34.149Z,4596
2017-10-08T08:29:34.785Z,4540
2017-10-08T08:30:34.114Z,4752
2017-10-08T08:31:34.103Z,6328
2017-10-08T08:32:35.127Z,5936
2017-10-08T08:33:34.738Z,4864
2017-10-08T08:34:34.108Z,4348
2017-10-08T08:35:34.422Z,4112
2017-10-08T08:36:34.053Z,4300
2017-10-08T08:37:34.372Z,4472
2017-10-08T08:38:34.397Z,3368
2017-10-08T08:39:34.689Z,2376
2017-10-08T08:40:34.016Z,2560
2017-10-08T08:41:34.660Z,3732
2017-10-08T08:42:34.344Z,5860
2017-10-08T08:43:34.318Z,5976
2017-10-08T08:44:34.309Z,5928
2017-10-08T08:45:33.997Z,6572
2017-10-08T08:46:34.290Z,6148
2017-10-08T08:47:34.609Z,5820
2017-10-08T08:48:34.309Z,5520
2017-10-08T08:49:34.598Z,5864
2017-10-08T08:50:34.581Z,7020
2017-10-08T08:51:34.242Z,7716
2017-10-08T08:52:34.228Z,6756
2017-10-08T08:53:34.223Z,4964
2017-10-08T08:54:34.877Z,3752
2017-10-08T08:55:33.910Z,3532
2017-10-08T08:56:34.208Z,3812
2017-10-08T08:57:34.215Z,4540
2017-10-08T08:58:34.175Z,6392
2017-10-08T08:59:33.836Z,7352
2017-10-08T09:00:34.178Z,7672
2017-10-08T09:01:33.828Z,5584
2017-10-08T09:02:34.190Z,4340
2017-10-08T09:03:34.807Z,3916
2017-10-08T09:04:33.791Z,3228
2017-10-08T09:05:33.781Z,2724
2017-10-08T09:06:34.761Z,2824
2017-10-08T09:07:34.097Z,2936
2017-10-08T09:08:34.104Z,2852
2017-10-08T09:09:33.774Z,2788
2017-10-08T09:10:34.077Z,3188
2017-10-08T09:11:34.057Z,3856
2017-10-08T09:12:34.070Z,4172
2017-10-08T09:13:33.780Z,5496
2017-10-08T09:14:34.042Z,6416
2017-10-08T09:15:34.034Z,6932
2017-10-08T09:16:34.013Z,5864
2017-10-08T09:17:34.328Z,5300
2017-10-08T09:18:33.668Z,4132
2017-10-08T09:19:33.999Z,5316
2017-10-08T09:20:34.304Z,5416
2017-10-08T09:21:33.994Z,6128
2017-10-08T09:22:33.650Z,7084
2017-10-08T09:23:33.973Z,10516
2017-10-08T09:24:33.948Z,12940
2017-10-08T09:25:33.933Z,13288
2017-10-08T09:26:33.937Z,12552
2017-10-08T09:27:33.915Z,11220
2017-10-08T09:28:34.245Z,10476
2017-10-08T09:29:33.918Z,9484
2017-10-08T09:30:34.232Z,8680
2017-10-08T09:31:33.560Z,8352
2017-10-08T09:32:33.549Z,7084
2017-10-08T09:33:33.545Z,5996
2017-10-08T09:34:33.534Z,5432
2017-10-08T09:35:33.524Z,6968
2017-10-08T09:36:33.857Z,7596
2017-10-08T09:37:33.505Z,6176
2017-10-08T09:38:33.832Z,6560
2017-10-08T09:39:33.827Z,7464
2017-10-08T09:40:34.163Z,6748
2017-10-08T09:41:33.477Z,7116
2017-10-08T09:42:33.468Z,7492
2017-10-08T09:43:33.468Z,6632
2017-10-08T09:44:33.783Z,7316
2017-10-08T09:45:33.798Z,7064
2017-10-08T09:46:33.765Z,7736
2017-10-08T09:47:33.427Z,8180
2017-10-08T09:48:33.760Z,9352
2017-10-08T09:49:33.744Z,8120
2017-10-08T09:50:33.432Z,5976
2017-10-08T09:51:33.743Z,5532
2017-10-08T09:52:33.772Z,6192
2017-10-08T09:53:33.716Z,5740
2017-10-08T09:54:33.701Z,4996
2017-10-08T09:55:33.717Z,4660
2017-10-08T09:56:33.358Z,4712
2017-10-08T09:57:34.016Z,4828
2017-10-08T09:58:33.367Z,4908
2017-10-08T09:59:33.677Z,4904
2017-10-08T10:00:33.328Z,5024
2017-10-08T10:01:33.672Z,5164
2017-10-08T10:02:33.642Z,5784
2017-10-08T10:03:34.001Z,5696
2017-10-08T10:04:33.641Z,4688
2017-10-08T10:05:33.955Z,4852
2017-10-08T10:06:33.616Z,5072
2017-10-08T10:07:33.276Z,5912
2017-10-08T10:08:33.611Z,7544
2017-10-08T10:09:33.599Z,9284
2017-10-08T10:10:33.591Z,10332
2017-10-08T10:11:33.581Z,10228
2017-10-08T10:12:33.238Z,9656
2017-10-08T10:13:33.560Z,10124
2017-10-08T10:14:33.570Z,11344
2017-10-08T10:15:33.872Z,13728
2017-10-08T10:16:33.203Z,13396
2017-10-08T10:17:33.880Z,12784
2017-10-08T10:18:33.188Z,10192
2017-10-08T10:19:33.520Z,10056
2017-10-08T10:20:33.505Z,10368
2017-10-08T10:21:33.865Z,11124
2017-10-08T10:22:33.494Z,11636
2017-10-08T10:23:33.505Z,8568
2017-10-08T10:24:33.141Z,8916
2017-10-08T10:25:33.458Z,9184
2017-10-08T10:26:33.455Z,11312
2017-10-08T10:27:33.802Z,9896
2017-10-08T10:28:33.777Z,7332
2017-10-08T10:29:33.130Z,6520
2017-10-08T10:30:33.103Z,7764
2017-10-08T10:31:33.437Z,7836
2017-10-08T10:32:33.417Z,7776
2017-10-08T10:33:33.421Z,7080
2017-10-08T10:34:33.402Z,6484
2017-10-08T10:35:33.744Z,7024
2017-10-08T10:36:33.398Z,7308
2017-10-08T10:37:33.060Z,7028
2017-10-08T10:38:33.050Z,5552
2017-10-08T10:39:33.371Z,4460
2017-10-08T10:40:33.061Z,3916
2017-10-08T10:41:33.696Z,2844
2017-10-08T10:42:33.027Z,2252
2017-10-08T10:43:33.694Z,2592
2017-10-08T10:44:33.677Z,2704
2017-10-08T10:45:33.344Z,2288
2017-10-08T10:46:33.354Z,2052
2017-10-08T10:47:32.989Z,1840
2017-10-08T10:48:33.640Z,1356
2017-10-08T10:49:33.635Z,980
2017-10-08T10:50:32.967Z,1212
2017-10-08T10:51:33.332Z,1636
2017-10-08T10:52:33.294Z,2140
2017-10-08T10:53:32.955Z,5188
2017-10-08T10:54:33.267Z,7592
2017-10-08T10:55:33.599Z,7444
2017-10-08T10:56:33.625Z,7596
2017-10-08T10:57:32.914Z,7532
2017-10-08T10:58:33.240Z,7900
2017-10-08T10:59:33.554Z,7884
2017-10-08T11:00:33.245Z,7788
2017-10-08T11:01:33.219Z,7784
2017-10-08T11:02:33.566Z,8780
2017-10-08T11:03:33.208Z,10148
2017-10-08T11:04:32.861Z,10168
2017-10-08T11:05:32.859Z,10104
2017-10-08T11:06:32.854Z,9948
2017-10-08T11:07:33.181Z,9724
2017-10-08T11:08:32.830Z,9568
2017-10-08T11:09:32.828Z,10040
2017-10-08T11:10:33.794Z,9828
2017-10-08T11:11:33.480Z,8656
2017-10-08T11:12:33.124Z,7788
2017-10-08T11:13:33.121Z,7896
2017-10-08T11:14:32.784Z,8132
2017-10-08T11:15:32.800Z,7624
2017-10-08T11:16:33.435Z,7592
2017-10-08T11:17:33.089Z,8976
2017-10-08T11:18:33.098Z,9100
2017-10-08T11:19:33.118Z,7616
2017-10-08T11:20:32.739Z,6732
2017-10-08T11:21:33.404Z,5736
2017-10-08T11:22:33.720Z,5260
2017-10-08T11:23:32.716Z,5556
2017-10-08T11:24:32.705Z,4852
2017-10-08T11:25:32.721Z,4840
2017-10-08T11:26:32.691Z,5396
2017-10-08T11:27:33.014Z,4552
2017-10-08T11:28:33.018Z,4760
2017-10-08T11:29:32.677Z,5620
2017-10-08T11:30:32.661Z,4280
2017-10-08T11:31:32.998Z,4288
2017-10-08T11:32:32.649Z,5004
2017-10-08T11:33:33.292Z,5292
2017-10-08T11:34:32.664Z,4804
2017-10-08T11:35:33.290Z,6384
2017-10-08T11:36:32.616Z,10300
2017-10-08T11:37:32.940Z,11348
2017-10-08T11:38:32.937Z,9040
2017-10-08T11:39:32.921Z,9980
2017-10-08T11:40:32.610Z,9076
2017-10-08T11:41:33.587Z,7624
2017-10-08T11:42:32.897Z,8740
2017-10-08T11:43:32.894Z,9804
2017-10-08T11:44:32.894Z,8776
2017-10-08T11:45:32.550Z,8496
2017-10-08T11:46:32.876Z,8372
2017-10-08T11:47:32.561Z,8912
2017-10-08T11:48:32.865Z,9712
2017-10-08T11:49:32.526Z,9368
2017-10-08T11:50:32.512Z,8928
2017-10-08T11:51:32.838Z,10136
2017-10-08T11:52:32.824Z,9800
2017-10-08T11:53:32.507Z,8460
2017-10-08T11:54:32.481Z,8420
2017-10-08T11:55:33.154Z,9072
2017-10-08T11:56:32.492Z,8832
2017-10-08T11:57:32.786Z,8648
2017-10-08T11:58:32.458Z,7192
2017-10-08T11:59:33.433Z,6524
2017-10-08T12:00:33.115Z,7480
2017-10-08T12:01:32.432Z,7784
2017-10-08T12:02:33.093Z,7116
2017-10-08T12:03:32.746Z,6828
2017-10-08T12:05:32.726Z,8088
2017-10-08T12:06:32.391Z,9460
2017-10-08T12:07:33.040Z,9180
2017-10-08T12:08:32.724Z,8020
2017-10-08T12:09:32.782Z,7924
2017-10-08T12:10:32.764Z,8028
2017-10-08T12:11:32.786Z,6440
2017-10-08T12:12:32.980Z,5820
2017-10-08T12:13:32.740Z,5096
2017-10-08T12:14:32.430Z,3424
2017-10-08T12:15:32.417Z,3028
2017-10-08T12:16:32.730Z,3372
2017-10-08T12:17:33.047Z,3672
2017-10-08T12:18:32.806Z,3824
2017-10-08T12:19:32.695Z,3924
2017-10-08T12:20:32.696Z,3188
2017-10-08T12:21:32.366Z,3284
2017-10-08T12:22:32.363Z,4464
2017-10-08T12:23:33.338Z,4596
2017-10-08T12:24:32.332Z,4912
2017-10-08T12:25:32.650Z,4696
2017-10-08T12:26:32.646Z,3880
2017-10-08T12:27:32.667Z,4724
2017-10-08T12:28:32.651Z,8372
2017-10-08T12:29:32.947Z,10468
2017-10-08T12:30:32.958Z,10824
2017-10-08T12:31:32.609Z,10944
2017-10-08T12:32:32.621Z,10340
2017-10-08T12:33:32.273Z,11016
2017-10-08T12:34:32.588Z,12360
2017-10-08T12:35:32.905Z,12688
2017-10-08T12:36:32.244Z,10932
2017-10-08T12:37:32.562Z,9396
2017-10-08T12:38:32.575Z,9864
2017-10-08T12:39:32.882Z,7572
2017-10-08T12:40:32.541Z,4784
2017-10-08T12:41:32.541Z,5668
2017-10-08T12:42:32.197Z,5988
2017-10-08T12:43:32.539Z,4924
2017-10-08T12:44:32.847Z,4548
2017-10-08T12:45:32.189Z,4888
2017-10-08T12:46:32.170Z,6216
2017-10-08T12:47:32.200Z,7056
2017-10-08T12:48:32.811Z,7820
2017-10-08T12:49:32.152Z,8340
2017-10-08T12:50:33.141Z,6948
2017-10-08T12:51:32.474Z,6528
2017-10-08T12:52:32.806Z,5328
2017-10-08T12:53:32.444Z,7172
2017-10-08T12:54:32.120Z,8144
2017-10-08T12:55:32.121Z,8220
2017-10-08T12:56:32.424Z,7372
2017-10-08T12:57:32.111Z,6988
2017-10-08T12:58:32.410Z,5380
2017-10-08T12:59:32.400Z,4756
2017-10-08T13:00:32.402Z,4192
2017-10-08T13:01:32.059Z,3148
2017-10-08T13:02:32.390Z,2620
2017-10-08T13:03:32.051Z,2036
2017-10-08T13:04:32.366Z,1972
2017-10-08T13:05:32.372Z,2316
2017-10-08T13:06:32.678Z,2308
2017-10-08T13:07:32.341Z,2804
2017-10-08T13:08:32.335Z,2396
2017-10-08T13:09:31.999Z,2172
2017-10-08T13:10:32.335Z,1716
2017-10-08T13:11:32.313Z,1532
2017-10-08T13:12:32.310Z,1232
2017-10-08T13:13:31.969Z,956
2017-10-08T13:14:31.966Z,904
2017-10-08T13:15:32.279Z,920
2017-10-08T13:16:31.946Z,992
2017-10-08T13:17:31.952Z,640
2017-10-08T13:18:31.932Z,844
2017-10-08T13:19:32.250Z,1076
2017-10-08T13:20:32.259Z,1912
2017-10-08T13:21:32.884Z,2988
2017-10-08T13:22:32.880Z,2388
2017-10-08T13:23:32.214Z,2440
2017-10-08T13:24:32.206Z,3644
2017-10-08T13:25:32.199Z,3548
2017-10-08T13:26:32.185Z,2300
2017-10-08T13:27:31.859Z,2444
2017-10-08T13:28:32.193Z,2584
2017-10-08T13:29:32.191Z,2960
2017-10-08T13:30:31.824Z,2776
2017-10-08T13:31:32.817Z,2320
2017-10-08T13:32:32.133Z,1872
2017-10-08T13:33:31.796Z,1824
2017-10-08T13:34:32.120Z,1660
2017-10-08T13:35:32.136Z,1584
2017-10-08T13:36:32.126Z,2476
2017-10-08T13:37:32.097Z,2844
2017-10-08T13:38:32.076Z,2664
2017-10-08T13:39:32.068Z,2700
2017-10-08T13:40:31.745Z,2560
2017-10-08T13:41:32.046Z,2760
2017-10-08T13:42:32.041Z,2820
2017-10-08T13:43:32.024Z,2596
2017-10-08T13:44:31.690Z,2888
2017-10-08T13:45:32.333Z,2880
2017-10-08T13:46:32.027Z,2100
2017-10-08T13:47:32.003Z,1560
2017-10-08T13:48:31.974Z,1604
2017-10-08T13:49:31.636Z,1544
2017-10-08T13:50:32.289Z,1756
2017-10-08T13:51:31.944Z,1412
2017-10-08T13:52:32.274Z,1316